Time;durP1;ratioP1;P1;durP2;ratioP2;P2;SDS_P1;SDS_P2;PMS_P1;PMS_P2;Temp;Humidity;BMP_temperature;BMP_pressure;BME280_temperature;BME280_humidity;BME280_pressure;Samples;Min_cycle;Max_cycle;Signal;HPM_P1;HPM_P2
2022/05/04 00:01:54;;;;;;;12.90;2.13;;;7.20;99.20;;;;;;5028931;28;20566;-43
2022/05/04 00:04:20;;;;;;;9.82;2.85;;;7.10;99.40;;;;;;5028869;28;20045;-43
2022/05/04 00:06:46;;;;;;;10.05;2.63;;;7.10;99.20;;;;;;5029093;28;20102;-48
2022/05/04 00:09:12;;;;;;;9.85;2.53;;;6.80;99.20;;;;;;5029119;28;20049;-43
2022/05/04 00:11:37;;;;;;;11.65;2.00;;;7.90;99.50;;;;;;5029021;28;20125;-43
2022/05/04 00:14:03;;;;;;;7.93;1.70;;;7.10;99.50;;;;;;5027286;28;20060;-43
2022/05/04 00:16:29;;;;;;;11.43;2.42;;;7.10;99.90;;;;;;5028706;28;20083;-43
2022/05/04 00:18:54;;;;;;;10.70;1.92;;;7.10;99.90;;;;;;5028794;28;20129;-44
2022/05/04 00:21:20;;;;;;;8.07;1.88;;;7.10;99.90;;;;;;5028612;28;20041;-44
2022/05/04 00:23:45;;;;;;;8.48;1.70;;;7.10;99.90;;;;;;5028741;28;20183;-45
2022/05/04 00:26:11;;;;;;;11.68;2.15;;;7.10;99.90;;;;;;5027382;28;20045;-43
2022/05/04 00:28:37;;;;;;;9.15;1.98;;;7.10;99.90;;;;;;5027277;28;20052;-44
2022/05/04 00:31:02;;;;;;;12.20;2.33;;;7.10;99.90;;;;;;5027173;28;20052;-44
2022/05/04 00:33:28;;;;;;;9.50;2.22;;;7.00;99.90;;;;;;5028924;28;20090;-44
2022/05/04 00:35:54;;;;;;;9.93;2.45;;;7.00;99.90;;;;;;5028781;28;20077;-43
2022/05/04 00:38:19;;;;;;;11.32;2.88;;;7.00;99.90;;;;;;5028577;28;20111;-44
2022/05/04 00:40:45;;;;;;;11.45;3.22;;;7.00;99.90;;;;;;5028653;28;20053;-43
2022/05/04 00:43:24;;;;;;;9.88;2.63;;;7.00;99.90;;;;;;5028348;28;20056;-44
2022/05/04 00:45:50;;;;;;;9.98;1.90;;;7.50;99.90;;;;;;5041682;28;20385;-42
2022/05/04 00:48:16;;;;;;;4.43;1.55;;;6.70;99.90;;;;;;5048121;28;20049;-44
2022/05/04 00:50:43;;;;;;;7.60;1.85;;;6.70;99.90;;;;;;5051671;28;20082;-47
2022/05/04 00:53:10;;;;;;;8.55;2.00;;;7.00;99.90;;;;;;5052230;28;20442;-43
2022/05/04 00:55:36;;;;;;;6.05;1.70;;;7.00;99.90;;;;;;5052338;28;20040;-43
2022/05/04 01:00:48;;;;;;;13.73;2.58;;;7.00;99.90;;;;;;5052175;28;20086;-44
2022/05/04 01:03:14;;;;;;;9.90;1.63;;;6.70;99.90;;;;;;5052189;28;20076;-44
2022/05/04 01:05:40;;;;;;;12.18;3.10;;;6.90;99.90;;;;;;5052441;28;20032;-44
2022/05/04 01:08:07;;;;;;;9.88;1.95;;;7.90;99.90;;;;;;5052261;28;20049;-43
2022/05/04 01:10:33;;;;;;;11.38;2.42;;;6.90;99.90;;;;;;5052355;28;20045;-43
2022/05/04 01:12:58;;;;;;;12.93;2.42;;;6.90;99.90;;;;;;5052227;28;20049;-44
2022/05/04 01:15:24;;;;;;;9.25;2.40;;;6.90;99.90;;;;;;5050435;28;20056;-43
2022/05/04 01:17:50;;;;;;;15.35;2.60;;;6.90;99.90;;;;;;5051885;28;20127;-43
2022/05/04 01:20:17;;;;;;;10.68;2.20;;;6.90;99.90;;;;;;5051918;28;20463;-43
2022/05/04 01:22:42;;;;;;;13.85;2.75;;;6.80;99.90;;;;;;5052198;28;20053;-42
2022/05/04 01:25:10;;;;;;;7.93;2.30;;;6.90;99.90;;;;;;5051822;28;20059;-44
2022/05/04 01:27:36;;;;;;;7.25;1.92;;;6.90;99.90;;;;;;5052004;28;20404;-44
2022/05/04 01:30:02;;;;;;;10.02;2.17;;;6.90;99.90;;;;;;5051673;28;20105;-42
2022/05/04 01:32:28;;;;;;;8.52;2.20;;;6.90;99.90;;;;;;5051450;28;20134;-44
2022/05/04 01:34:53;;;;;;;7.05;2.00;;;6.80;99.90;;;;;;5051517;28;20082;-44
2022/05/04 01:37:19;;;;;;;9.20;2.15;;;6.80;99.90;;;;;;5050157;28;20045;-43
2022/05/04 01:39:45;;;;;;;8.82;2.33;;;6.50;99.90;;;;;;5051316;28;20060;-43
2022/05/04 01:42:13;;;;;;;11.48;2.35;;;6.80;99.90;;;;;;5051502;28;20037;-44
2022/05/04 01:44:41;;;;;;;17.48;3.83;;;6.80;99.90;;;;;;5045281;28;20754;-43
2022/05/04 01:47:11;;;;;;;10.57;2.30;;;6.80;99.90;;;;;;5030303;28;20128;-45
2022/05/04 01:49:37;;;;;;;8.65;1.80;;;7.40;99.90;;;;;;5031236;28;20045;-43
2022/05/04 01:52:04;;;;;;;11.57;2.88;;;6.80;99.90;;;;;;5031591;28;20602;-43
2022/05/04 01:54:29;;;;;;;12.98;2.47;;;6.80;99.90;;;;;;5031510;28;20033;-43
2022/05/04 01:56:55;;;;;;;11.23;2.92;;;6.80;99.90;;;;;;5031638;28;20041;-43
2022/05/04 01:59:21;;;;;;;8.50;1.88;;;6.80;99.90;;;;;;5031031;28;20045;-43
2022/05/04 02:01:47;;;;;;;10.55;2.60;;;6.80;99.90;;;;;;5030604;28;20053;-42
2022/05/04 02:04:14;;;;;;;8.65;2.63;;;7.80;99.90;;;;;;5029392;28;20049;-43
2022/05/04 02:06:40;;;;;;;10.35;2.78;;;6.80;99.90;;;;;;5031270;28;20088;-43
2022/05/04 02:09:06;;;;;;;10.13;2.30;;;6.80;99.90;;;;;;5030795;28;20087;-45
2022/05/04 02:11:32;;;;;;;6.53;2.22;;;6.80;99.90;;;;;;5031082;28;20182;-43
2022/05/04 02:13:59;;;;;;;12.38;2.20;;;6.70;99.90;;;;;;5030903;28;20041;-44
2022/05/04 02:16:25;;;;;;;10.13;2.00;;;6.80;99.90;;;;;;5030679;28;20045;-43
2022/05/04 02:18:51;;;;;;;6.53;2.30;;;6.80;99.90;;;;;;5030762;28;20053;-45
2022/05/04 02:21:16;;;;;;;6.43;2.28;;;6.60;99.90;;;;;;5030811;28;20049;-44
2022/05/04 02:23:42;;;;;;;12.43;1.95;;;6.70;99.90;;;;;;5030751;28;20041;-44
2022/05/04 02:26:08;;;;;;;13.52;3.03;;;6.70;99.90;;;;;;5031089;28;20046;-43
2022/05/04 02:28:34;;;;;;;8.23;1.90;;;7.30;99.90;;;;;;5030514;28;20127;-44
2022/05/04 02:31:00;;;;;;;8.57;2.08;;;7.00;99.90;;;;;;5030563;28;20041;-44
2022/05/04 02:33:25;;;;;;;8.32;2.22;;;6.30;99.90;;;;;;5030301;28;20045;-42
2022/05/04 02:38:35;;;;;;;10.90;2.20;;;6.50;99.90;;;;;;5030106;28;20405;-43
2022/05/04 02:41:01;;;;;;;8.20;2.20;;;6.60;99.90;;;;;;5030529;28;20049;-44
2022/05/04 02:43:28;;;;;;;8.55;2.15;;;6.60;99.90;;;;;;5029044;28;20049;-43
2022/05/04 02:45:54;;;;;;;11.00;2.58;;;6.60;99.90;;;;;;5045364;28;20052;-43
2022/05/04 02:48:20;;;;;;;7.55;2.15;;;6.60;99.90;;;;;;5050404;28;20041;-44
2022/05/04 02:50:46;;;;;;;5.90;1.33;;;6.60;99.90;;;;;;5050563;28;20787;-44
2022/05/04 02:53:12;;;;;;;10.45;2.10;;;6.40;99.90;;;;;;5050924;28;20391;-42
2022/05/04 02:55:38;;;;;;;8.50;1.83;;;6.60;99.90;;;;;;5050573;28;20041;-44
2022/05/04 02:58:03;;;;;;;9.07;1.95;;;6.50;99.90;;;;;;5051084;28;20040;-43
2022/05/04 03:00:29;;;;;;;13.43;2.15;;;6.60;99.90;;;;;;5050714;28;20045;-42
2022/05/04 03:02:55;;;;;;;12.20;2.00;;;6.30;99.90;;;;;;5050784;28;20041;-43
2022/05/04 03:05:21;;;;;;;7.90;2.28;;;6.60;99.90;;;;;;5050315;28;20041;-42
2022/05/04 03:07:47;;;;;;;9.88;2.10;;;6.20;99.90;;;;;;5050354;28;20113;-44
2022/05/04 03:10:14;;;;;;;13.38;2.38;;;6.60;99.90;;;;;;5050326;28;20071;-46
2022/05/04 03:12:40;;;;;;;11.50;2.63;;;6.60;99.90;;;;;;5049069;28;20545;-43
2022/05/04 03:15:07;;;;;;;7.82;2.28;;;7.30;99.90;;;;;;5049956;28;20484;-43
2022/05/04 03:17:33;;;;;;;10.63;2.35;;;6.60;99.90;;;;;;5049678;28;20048;-43
2022/05/04 03:20:00;;;;;;;9.20;2.10;;;6.50;99.90;;;;;;5050058;28;20399;-43
2022/05/04 03:22:25;;;;;;;8.77;2.40;;;6.60;99.90;;;;;;5049787;28;20040;-43
2022/05/04 03:24:52;;;;;;;8.77;2.53;;;7.50;99.90;;;;;;5049787;28;20036;-43
2022/05/04 03:27:17;;;;;;;10.00;1.63;;;6.20;99.90;;;;;;5049874;28;20048;-43
2022/05/04 03:29:43;;;;;;;6.80;1.33;;;6.50;99.90;;;;;;5049294;28;20546;-44
2022/05/04 03:32:09;;;;;;;9.20;1.65;;;6.50;99.90;;;;;;5049818;28;20091;-44
2022/05/04 03:34:36;;;;;;;11.43;2.03;;;6.50;99.90;;;;;;5049395;28;20136;-45
2022/05/04 03:37:02;;;;;;;11.95;3.45;;;6.50;99.90;;;;;;5049518;28;20065;-45
2022/05/04 03:39:28;;;;;;;8.70;1.77;;;6.50;99.90;;;;;;5049167;28;20049;-44
2022/05/04 03:41:54;;;;;;;9.98;2.03;;;6.50;99.90;;;;;;5049522;28;20428;-42
2022/05/04 03:44:19;;;;;;;8.35;2.08;;;6.50;99.90;;;;;;5047345;28;20075;-44
2022/05/04 03:46:46;;;;;;;8.15;2.45;;;6.60;99.90;;;;;;5029295;28;20041;-47
2022/05/04 03:49:13;;;;;;;5.53;2.15;;;6.50;99.90;;;;;;5029305;28;20085;-43
2022/05/04 03:51:40;;;;;;;10.70;2.55;;;7.20;99.90;;;;;;5028996;28;20125;-43
2022/05/04 03:54:06;;;;;;;9.23;2.22;;;7.00;99.90;;;;;;5029290;28;20047;-43
2022/05/04 03:56:32;;;;;;;10.80;2.88;;;6.50;99.90;;;;;;5028909;28;20491;-44
2022/05/04 03:58:58;;;;;;;11.25;2.40;;;6.50;99.90;;;;;;5029027;28;20045;-42
2022/05/04 04:01:23;;;;;;;10.95;2.33;;;6.50;99.90;;;;;;5028057;28;20488;-43
2022/05/04 04:03:49;;;;;;;8.73;2.92;;;7.00;99.90;;;;;;5028838;28;20345;-43
2022/05/04 04:06:15;;;;;;;14.05;3.60;;;6.50;99.90;;;;;;5029098;28;20371;-44
2022/05/04 04:08:41;;;;;;;10.30;2.75;;;6.60;99.90;;;;;;5028864;28;20455;-43
2022/05/04 04:11:08;;;;;;;14.27;2.42;;;6.60;99.90;;;;;;5028947;28;20126;-43
2022/05/04 04:13:34;;;;;;;13.07;2.45;;;6.80;99.90;;;;;;5028913;28;20045;-43
2022/05/04 04:15:59;;;;;;;9.73;2.55;;;6.60;99.90;;;;;;5028808;28;20045;-43
2022/05/04 04:18:26;;;;;;;12.43;2.00;;;6.60;99.90;;;;;;5028973;28;20072;-44
2022/05/04 04:23:38;;;;;;;10.35;2.60;;;6.60;99.90;;;;;;5028445;28;20411;-43
2022/05/04 04:26:05;;;;;;;11.30;2.33;;;7.40;99.90;;;;;;5028672;28;20096;-44
2022/05/04 04:28:35;;;;;;;11.38;3.28;;;8.40;99.90;;;;;;5028735;28;20049;-43
2022/05/04 04:31:01;;;;;;;13.50;2.80;;;6.60;99.90;;;;;;5027692;28;20045;-44
2022/05/04 04:33:29;;;;;;;10.13;2.97;;;6.60;99.90;;;;;;5028699;28;20558;-44
2022/05/04 04:35:58;;;;;;;8.57;2.13;;;7.50;99.90;;;;;;5028602;28;20048;-45
2022/05/04 04:38:24;;;;;;;11.02;2.10;;;6.70;99.90;;;;;;5028098;28;20411;-43
2022/05/04 04:40:50;;;;;;;10.93;2.42;;;6.70;99.90;;;;;;5028522;28;20046;-43
2022/05/04 04:43:16;;;;;;;9.38;1.95;;;6.60;99.90;;;;;;5028473;28;20047;-44
2022/05/04 04:45:46;;;;;;;10.57;3.28;;;6.80;99.90;;;;;;5041507;28;20037;-43
2022/05/04 04:48:14;;;;;;;12.85;2.50;;;7.60;99.90;;;;;;5048341;28;20914;-45
2022/05/04 04:50:39;;;;;;;12.55;2.80;;;6.90;99.90;;;;;;5047172;28;20561;-43
2022/05/04 04:53:05;;;;;;;9.00;2.25;;;6.90;99.90;;;;;;5048455;28;20044;-43
2022/05/04 04:55:31;;;;;;;11.13;3.13;;;6.90;99.90;;;;;;5048159;28;20041;-44
2022/05/04 04:57:56;;;;;;;6.68;2.08;;;7.00;99.90;;;;;;5048444;28;20048;-44
2022/05/04 05:00:24;;;;;;;14.23;2.00;;;7.70;99.90;;;;;;5048758;28;20045;-45
2022/05/04 05:02:50;;;;;;;14.07;2.10;;;7.00;99.90;;;;;;5048422;28;20087;-42
2022/05/04 05:05:16;;;;;;;10.20;1.88;;;7.30;99.90;;;;;;5047605;28;20786;-42
2022/05/04 05:07:42;;;;;;;9.90;2.78;;;7.30;99.90;;;;;;5047352;28;20087;-42
2022/05/04 05:10:08;;;;;;;7.40;2.40;;;7.30;99.90;;;;;;5047793;28;20072;-44
2022/05/04 05:12:34;;;;;;;9.10;2.50;;;7.30;99.90;;;;;;5047972;28;20094;-44
2022/05/04 05:17:44;;;;;;;9.82;2.20;;;7.40;99.90;;;;;;5047929;28;20567;-43
2022/05/04 05:20:10;;;;;;;11.43;2.20;;;7.50;99.90;;;;;;5048162;28;20159;-44
2022/05/04 05:22:36;;;;;;;13.10;2.05;;;7.50;99.90;;;;;;5047645;28;20099;-43
2022/05/04 05:25:02;;;;;;;7.80;2.00;;;7.60;99.90;;;;;;5047851;28;20045;-43
2022/05/04 05:27:32;;;;;;;8.80;2.85;;;7.60;99.90;;;;;;5047692;28;20468;-44
2022/05/04 05:29:58;;;;;;;8.93;2.45;;;7.70;99.90;;;;;;5047362;28;20040;-43
2022/05/04 05:32:24;;;;;;;6.82;1.80;;;7.60;99.90;;;;;;5047536;28;20672;-44
2022/05/04 05:34:50;;;;;;;7.30;2.47;;;7.90;99.90;;;;;;5037771;28;20041;-44
2022/05/04 05:37:17;;;;;;;6.15;1.67;;;7.90;99.90;;;;;;5042832;28;20041;-44
2022/05/04 05:39:42;;;;;;;9.85;2.08;;;8.00;99.90;;;;;;5039305;28;20068;-42
2022/05/04 05:42:09;;;;;;;13.15;1.83;;;8.10;99.90;;;;;;5043551;28;20480;-43
2022/05/04 05:44:35;;;;;;;11.43;2.15;;;8.20;99.90;;;;;;5047144;28;20620;-42
2022/05/04 05:47:01;;;;;;;12.65;2.53;;;8.30;99.90;;;;;;5044477;28;20037;-42
2022/05/04 05:49:27;;;;;;;10.00;2.03;;;8.40;99.90;;;;;;5031414;28;20049;-44
2022/05/04 05:51:53;;;;;;;9.95;2.30;;;8.50;99.90;;;;;;5030643;28;20116;-44
2022/05/04 05:54:19;;;;;;;9.43;2.15;;;8.60;99.90;;;;;;5030990;28;20183;-43
2022/05/04 05:56:45;;;;;;;10.80;2.33;;;9.20;99.90;;;;;;5031018;28;20052;-44
2022/05/04 05:59:12;;;;;;;13.38;2.17;;;8.90;99.90;;;;;;5031335;28;20049;-44
2022/05/04 06:01:37;;;;;;;7.75;1.85;;;8.60;99.90;;;;;;5031181;28;20392;-43
2022/05/04 06:04:03;;;;;;;10.50;2.13;;;9.10;99.90;;;;;;5030486;28;20037;-44
2022/05/04 06:06:29;;;;;;;6.22;1.70;;;9.20;99.90;;;;;;5030699;28;20562;-44
2022/05/04 06:08:55;;;;;;;6.45;1.52;;;9.10;99.90;;;;;;5030709;28;20085;-45
2022/05/04 06:11:20;;;;;;;3.28;0.93;;;9.50;99.60;;;;;;5031209;28;20038;-44
2022/05/04 06:13:46;;;;;;;9.43;1.40;;;9.50;98.40;;;;;;5030933;28;20080;-44
2022/05/04 06:16:12;;;;;;;11.07;1.65;;;9.50;97.40;;;;;;5031022;28;20136;-43
2022/05/04 06:18:38;;;;;;;8.43;1.40;;;10.20;97.10;;;;;;5031299;28;20111;-45
2022/05/04 06:21:03;;;;;;;6.55;1.10;;;9.70;96.40;;;;;;5031179;28;20045;-43
2022/05/04 06:23:29;;;;;;;9.40;1.40;;;9.80;95.70;;;;;;5031134;28;20049;-46
2022/05/04 06:25:55;;;;;;;9.95;1.45;;;9.60;95.00;;;;;;5029292;28;20100;-46
2022/05/04 06:28:20;;;;;;;9.27;0.95;;;9.90;94.60;;;;;;5031005;28;20049;-44
2022/05/04 06:36:15;;;;;;;11.77;2.65;;;10.60;93.90;;;;;;5031292;28;20053;-44
2022/05/04 06:38:40;;;;;;;8.95;1.25;;;10.90;93.00;;;;;;5031101;28;20061;-45
2022/05/04 06:41:06;;;;;;;5.25;1.42;;;11.10;92.40;;;;;;5030842;28;20057;-45
2022/05/04 06:43:32;;;;;;;5.60;0.80;;;11.40;91.80;;;;;;5030581;28;20041;-44
2022/05/04 06:45:59;;;;;;;9.20;1.27;;;11.40;90.80;;;;;;5046160;28;20404;-45
2022/05/04 06:48:25;;;;;;;11.20;1.85;;;11.60;90.60;;;;;;5050985;28;20072;-45
2022/05/04 06:50:51;;;;;;;7.65;1.17;;;11.60;88.70;;;;;;5050998;28;20049;-45
2022/05/04 06:53:17;;;;;;;12.52;1.40;;;11.70;87.70;;;;;;5049576;28;20045;-45
2022/05/04 06:55:42;;;;;;;9.52;1.40;;;11.90;86.10;;;;;;5046946;28;20041;-45
2022/05/04 06:58:08;;;;;;;6.72;1.05;;;12.00;86.30;;;;;;5039546;28;20036;-44
2022/05/04 07:00:34;;;;;;;8.77;1.05;;;12.20;85.80;;;;;;5040374;28;20033;-44
2022/05/04 07:02:59;;;;;;;5.20;1.20;;;12.50;83.60;;;;;;5039109;28;20418;-44
2022/05/04 07:05:25;;;;;;;11.07;1.65;;;13.00;82.90;;;;;;5041076;28;20036;-45
2022/05/04 07:07:52;;;;;;;7.20;0.95;;;13.40;81.60;;;;;;5039690;28;20080;-45
2022/05/04 07:10:18;;;;;;;6.32;0.88;;;13.90;80.20;;;;;;5036736;28;20041;-43
2022/05/04 07:12:44;;;;;;;10.43;0.90;;;14.40;78.00;;;;;;5036258;28;20046;-44
2022/05/04 07:15:10;;;;;;;9.75;1.83;;;14.70;75.70;;;;;;5038897;28;20041;-44
2022/05/04 07:17:36;;;;;;;7.05;1.13;;;15.60;73.90;;;;;;5038339;28;20045;-45
2022/05/04 07:20:02;;;;;;;6.90;0.95;;;15.60;74.00;;;;;;5039288;28;20135;-43
2022/05/04 07:22:28;;;;;;;9.82;1.58;;;16.20;72.00;;;;;;5037494;28;20484;-43
2022/05/04 07:24:54;;;;;;;6.85;1.17;;;16.30;70.10;;;;;;5029438;28;20092;-43
2022/05/04 07:27:19;;;;;;;7.32;0.90;;;16.30;68.70;;;;;;5029327;28;20067;-43
2022/05/04 07:29:46;;;;;;;4.88;1.33;;;17.20;67.30;;;;;;5030158;28;20041;-45
2022/05/04 07:32:12;;;;;;;7.28;0.90;;;17.90;66.30;;;;;;5029954;28;20129;-44
2022/05/04 07:34:38;;;;;;;5.55;0.80;;;18.20;64.90;;;;;;5030028;28;20120;-46
2022/05/04 07:37:04;;;;;;;9.48;0.93;;;18.10;62.60;;;;;;5029830;28;20120;-43
2022/05/04 07:42:21;;;;;;;5.35;0.90;;;18.80;62.00;;;;;;5029345;28;20048;-47
2022/05/04 07:45:03;;;;;;;9.63;1.45;;;18.50;60.60;;;;;;5035309;28;20059;-44
2022/05/04 07:47:34;;;;;;;6.47;0.75;;;18.10;59.00;;;;;;5048669;28;20044;-44
2022/05/04 07:50:01;;;;;;;4.43;0.70;;;17.90;61.00;;;;;;5049038;28;20043;-45
2022/05/04 07:52:27;;;;;;;5.20;0.88;;;17.90;60.90;;;;;;5049474;28;20087;-44
2022/05/04 07:54:53;;;;;;;7.20;0.98;;;17.80;60.30;;;;;;5049262;28;20041;-44
2022/05/04 07:57:19;;;;;;;7.40;0.90;;;21.00;71.90;;;;;;5049107;28;20051;-46
2022/05/04 08:04:16;;;;;;;6.97;0.77;;;21.40;59.30;;;;;;5048945;28;20071;-44
2022/05/04 08:05:16;;;;;;;9.60;1.10;;;23.30;53.30;;;;;;5049624;28;20056;-47
2022/05/04 08:07:41;;;;;;;7.13;1.13;;;23.00;51.50;;;;;;5049695;28;20045;-45
2022/05/04 08:10:07;;;;;;;6.60;1.15;;;22.50;50.40;;;;;;5049343;28;20403;-45
2022/05/04 08:12:34;;;;;;;6.03;0.88;;;21.90;49.90;;;;;;5049676;28;20036;-44
2022/05/04 08:15:01;;;;;;;5.40;0.80;;;21.50;50.70;;;;;;5049058;28;20048;-43
2022/05/04 08:17:27;;;;;;;5.63;1.08;;;22.50;50.80;;;;;;5048108;28;20045;-43
2022/05/04 08:19:53;;;;;;;5.65;1.23;;;23.70;49.20;;;;;;5048420;28;20053;-44
2022/05/04 08:22:18;;;;;;;6.13;1.15;;;25.50;48.00;;;;;;5048807;28;20053;-46
2022/05/04 08:24:44;;;;;;;6.05;0.95;;;26.90;45.90;;;;;;5049459;28;20052;-46
2022/05/04 08:27:10;;;;;;;4.05;0.88;;;28.20;45.10;;;;;;5047771;28;20512;-47
2022/05/04 08:29:36;;;;;;;7.60;0.85;;;29.30;43.40;;;;;;5048786;28;20045;-46
2022/05/04 08:32:01;;;;;;;6.03;0.80;;;29.90;42.50;;;;;;5048801;28;20041;-48
2022/05/04 08:34:27;;;;;;;4.70;1.05;;;30.80;42.00;;;;;;5049172;28;20041;-46
2022/05/04 08:36:53;;;;;;;5.28;0.95;;;31.80;40.30;;;;;;5049397;28;20461;-56
2022/05/04 08:39:18;;;;;;;6.72;0.90;;;32.40;39.10;;;;;;5035404;28;20542;-54
2022/05/04 08:41:44;;;;;;;4.75;0.90;;;33.00;38.00;;;;;;5014080;28;20623;-55
2022/05/04 08:44:11;;;;;;;6.38;0.90;;;32.30;36.80;;;;;;5018325;28;20048;-50
2022/05/04 08:46:42;;;;;;;8.43;1.00;;;32.20;37.00;;;;;;5021316;28;20034;-55
2022/05/04 08:49:09;;;;;;;4.22;0.70;;;32.70;36.50;;;;;;5021281;28;20046;-56
2022/05/04 08:51:36;;;;;;;5.07;0.90;;;32.50;36.60;;;;;;5022606;28;20092;-43
2022/05/04 08:54:06;;;;;;;3.80;0.95;;;32.20;36.10;;;;;;5023773;28;20029;-58
2022/05/04 08:56:34;;;;;;;5.18;1.10;;;32.00;36.30;;;;;;5024511;28;20042;-48
2022/05/04 08:59:04;;;;;;;6.38;1.00;;;30.80;35.30;;;;;;5024099;28;20030;-45
2022/05/04 09:01:31;;;;;;;10.02;1.08;;;30.80;35.50;;;;;;5023198;28;20116;-49
2022/05/04 09:03:59;;;;;;;5.47;1.02;;;31.40;36.00;;;;;;5023804;28;20037;-55
2022/05/04 09:06:29;;;;;;;7.82;0.98;;;31.80;35.00;;;;;;5018537;28;20531;-52
2022/05/04 09:08:55;;;;;;;4.97;1.13;;;32.30;35.10;;;;;;5018269;28;20045;-50
2022/05/04 09:11:22;;;;;;;5.63;0.70;;;32.90;35.10;;;;;;5017449;28;20037;-49
2022/05/04 09:13:49;;;;;;;5.32;0.90;;;32.90;34.70;;;;;;5022654;28;20116;-49
2022/05/04 09:16:33;;;;;;;3.65;0.70;;;33.20;35.40;;;;;;5022885;28;20472;-49
2022/05/04 09:19:00;;;;;;;5.13;0.80;;;33.40;34.70;;;;;;5022389;28;20157;-47
2022/05/04 09:21:26;;;;;;;4.57;1.00;;;33.20;34.50;;;;;;5022854;28;20714;-47
2022/05/04 09:23:53;;;;;;;5.50;0.90;;;32.20;34.10;;;;;;5021998;28;20044;-51
2022/05/04 09:26:21;;;;;;;6.07;1.02;;;30.60;34.10;;;;;;5022769;28;20098;-52
2022/05/04 09:28:52;;;;;;;8.07;1.33;;;29.40;34.30;;;;;;5020924;28;20037;-50
2022/05/04 09:31:22;;;;;;;10.00;1.00;;;28.00;34.10;;;;;;5021169;28;20104;-52
2022/05/04 09:33:59;;;;;;;4.90;1.20;;;27.60;35.80;;;;;;5023741;28;20774;-50
2022/05/04 09:45:11;;;;;;;5.53;0.88;;;31.10;34.40;;;;;;5020883;28;20512;-44
2022/05/04 09:47:44;;;;;;;6.55;1.10;;;31.60;35.70;;;;;;5021069;28;20729;-46
2022/05/04 09:50:11;;;;;;;6.82;1.20;;;31.70;35.00;;;;;;5020033;28;20563;-46
2022/05/04 09:52:57;;;;;;;6.43;1.02;;;31.10;33.90;;;;;;5020852;28;20087;-44
2022/05/04 09:55:25;;;;;;;6.35;1.05;;;31.30;35.00;;;;;;5018828;28;20029;-46
2022/05/04 09:57:55;;;;;;;5.82;1.35;;;31.20;34.20;;;;;;5021495;28;20564;-47
2022/05/04 10:00:24;;;;;;;6.05;0.85;;;30.40;32.90;;;;;;5019478;28;20531;-51
2022/05/04 10:02:55;;;;;;;4.30;0.70;;;29.90;34.40;;;;;;5019424;28;20045;-46
2022/05/04 10:05:21;;;;;;;;;;;29.90;34.00;;;;;;5021914;28;20064;-44
2022/05/04 10:07:49;;;;;;;5.50;0.82;;;28.90;35.00;;;;;;5020594;28;19965;-44
2022/05/04 10:10:18;;;;;;;6.13;0.73;;;28.40;35.80;;;;;;5020315;28;20060;-49
2022/05/04 10:12:44;;;;;;;5.22;0.95;;;28.20;34.90;;;;;;5023548;28;20439;-49
2022/05/04 10:15:20;;;;;;;8.45;1.52;;;28.00;35.00;;;;;;5020134;28;20090;-54
2022/05/04 10:18:09;;;;;;;5.82;0.88;;;27.70;33.80;;;;;;5022214;28;20124;-54
2022/05/04 10:20:39;;;;;;;3.30;0.75;;;28.60;35.50;;;;;;5023677;28;20044;-53
2022/05/04 10:23:10;;;;;;;8.30;1.15;;;29.30;34.90;;;;;;5020085;28;20113;-52
2022/05/04 10:25:35;;;;;;;6.88;1.10;;;30.00;34.10;;;;;;5024893;28;20116;-52
2022/05/04 10:28:10;;;;;;;5.38;0.98;;;30.50;33.60;;;;;;5023246;28;20120;-55
2022/05/04 10:30:44;;;;;;;9.88;1.33;;;30.90;33.00;;;;;;5024172;28;20069;-48
2022/05/04 10:33:10;;;;;;;5.60;1.23;;;30.90;32.20;;;;;;5021228;28;20500;-44
2022/05/04 10:35:36;;;;;;;6.40;1.27;;;30.90;33.10;;;;;;5023985;28;20117;-43
2022/05/04 10:38:04;;;;;;;6.72;1.00;;;30.80;37.20;;;;;;5021605;28;20093;-45
2022/05/04 10:40:53;;;;;;;8.10;1.17;;;31.20;37.20;;;;;;5019760;28;20099;-45
2022/05/04 10:43:43;;;;;;;7.60;0.80;;;31.60;50.70;;;;;;5019598;28;20046;-48
2022/05/04 10:46:18;;;;;;;9.32;1.20;;;31.00;33.80;;;;;;5014260;28;20228;-44
2022/05/04 10:49:02;;;;;;;7.50;1.52;;;29.40;32.00;;;;;;5019635;28;20041;-49
2022/05/04 10:51:35;;;;;;;9.00;1.67;;;27.80;33.30;;;;;;5018591;28;20585;-45
2022/05/04 10:54:11;;;;;;;4.97;1.27;;;26.20;35.30;;;;;;5020992;28;20037;-42
2022/05/04 10:56:44;;;;;;;5.72;1.20;;;25.10;36.80;;;;;;5019200;28;20504;-43
2022/05/04 10:59:11;;;;;;;6.85;1.20;;;23.90;36.50;;;;;;5019342;28;20829;-43
2022/05/04 11:01:38;;;;;;;3.70;1.00;;;22.60;37.50;;;;;;5020481;28;20034;-43
2022/05/04 11:04:10;;;;;;;7.30;1.77;;;21.80;64.40;;;;;;5020314;28;22379;-47
2022/05/04 11:06:55;;;;;;;10.18;2.17;;;20.40;39.80;;;;;;5018474;28;20037;-44
2022/05/04 11:09:29;;;;;;;7.55;1.08;;;19.50;40.80;;;;;;5033431;28;20060;-45
2022/05/04 11:12:00;;;;;;;7.10;1.38;;;18.80;43.50;;;;;;5018702;28;20042;-45
2022/05/04 11:14:27;;;;;;;6.95;1.15;;;18.20;42.80;;;;;;5018344;28;20029;-41
2022/05/04 11:16:55;;;;;;;4.40;1.08;;;17.70;44.30;;;;;;5017162;28;20042;-42
2022/05/04 11:19:26;;;;;;;9.95;1.13;;;17.40;46.00;;;;;;5004490;28;20049;-43
2022/05/04 11:21:51;;;;;;;6.20;1.33;;;17.20;46.20;;;;;;5020109;28;20068;-44
2022/05/04 11:24:17;;;;;;;6.97;2.00;;;17.10;47.30;;;;;;5019223;28;20143;-43
2022/05/04 11:26:48;;;;;;;5.40;1.30;;;17.00;48.00;;;;;;5018825;28;20056;-44
2022/05/04 11:29:28;;;;;;;7.60;1.52;;;17.00;48.70;;;;;;5033857;28;20127;-41
2022/05/04 11:31:58;;;;;;;9.50;2.03;;;17.00;50.90;;;;;;5019348;28;20045;-43
2022/05/04 11:34:30;;;;;;;8.43;1.38;;;17.00;50.60;;;;;;5017327;28;22620;-43
2022/05/04 11:37:01;;;;;;;16.10;1.70;;;17.00;50.50;;;;;;5020211;28;20068;-42
2022/05/04 11:39:28;;;;;;;7.22;1.33;;;17.10;51.10;;;;;;5018783;28;20057;-41
2022/05/04 11:41:56;;;;;;;7.50;1.60;;;17.00;50.90;;;;;;5018518;28;20040;-43
2022/05/04 11:44:24;;;;;;;5.45;1.08;;;16.70;50.00;;;;;;5017246;28;20041;-43
2022/05/04 11:46:51;;;;;;;5.22;1.30;;;16.50;53.00;;;;;;5019587;28;20069;-41
2022/05/04 11:49:19;;;;;;;6.45;1.55;;;16.50;54.10;;;;;;5016934;28;20483;-43
2022/05/04 11:51:45;;;;;;;9.57;1.60;;;16.50;54.30;;;;;;5019681;28;20128;-43
2022/05/04 11:54:10;;;;;;;9.00;1.40;;;16.60;55.60;;;;;;5020677;28;20030;-42
2022/05/04 11:56:37;;;;;;;10.02;2.13;;;16.50;56.30;;;;;;5019529;28;20088;-44
2022/05/04 11:59:03;;;;;;;7.32;1.55;;;16.50;54.90;;;;;;5018857;28;20507;-41
2022/05/04 12:01:29;;;;;;;5.95;1.38;;;16.60;56.20;;;;;;5017227;28;20037;-41
2022/05/04 12:03:56;;;;;;;9.43;1.98;;;16.60;56.40;;;;;;5007501;28;20092;-43
2022/05/04 12:06:23;;;;;;;8.50;1.75;;;16.70;56.90;;;;;;5017667;28;20458;-44
2022/05/04 12:08:51;;;;;;;6.97;1.23;;;16.60;57.80;;;;;;5018571;28;20119;-45
2022/05/04 12:11:17;;;;;;;6.78;1.77;;;16.50;63.10;;;;;;5018036;28;20026;-43
2022/05/04 12:13:43;;;;;;;3.53;1.40;;;16.60;63.20;;;;;;5019269;28;20520;-42
2022/05/04 12:16:11;;;;;;;8.63;1.35;;;16.50;56.60;;;;;;5019671;28;20037;-43
2022/05/04 12:18:38;;;;;;;8.05;1.73;;;16.50;54.00;;;;;;5020090;28;20038;-48
2022/05/04 12:21:13;;;;;;;12.27;2.00;;;16.20;53.20;;;;;;5018155;28;20611;-43
2022/05/04 12:23:41;;;;;;;12.80;1.95;;;16.20;53.20;;;;;;5016472;28;20532;-46
2022/05/04 12:26:08;;;;;;;9.85;1.50;;;16.20;53.40;;;;;;5018923;28;20045;-45
2022/05/04 12:28:34;;;;;;;7.28;1.50;;;16.20;53.20;;;;;;5009061;28;20052;-48
2022/05/04 12:33:48;;;;;;;6.20;1.83;;;16.30;53.90;;;;;;5017634;28;20084;-51
2022/05/04 12:36:15;;;;;;;5.85;1.63;;;16.40;53.80;;;;;;5018245;28;20229;-50
2022/05/04 12:38:47;;;;;;;7.05;1.20;;;16.50;53.80;;;;;;5017410;28;20164;-45
2022/05/04 12:41:17;;;;;;;6.50;2.00;;;16.50;54.60;;;;;;5017908;28;20107;-44
2022/05/04 12:43:42;;;;;;;7.38;1.33;;;16.40;54.70;;;;;;5017391;28;20113;-44
2022/05/04 12:46:10;;;;;;;5.78;1.60;;;16.30;54.00;;;;;;5017998;28;20714;-44
2022/05/04 12:48:44;;;;;;;7.20;1.60;;;16.20;52.70;;;;;;5022756;28;20041;-43
2022/05/04 12:51:11;;;;;;;7.43;1.90;;;16.20;53.10;;;;;;5022445;28;20053;-44
2022/05/04 12:53:40;;;;;;;11.32;2.67;;;15.70;53.70;;;;;;5020922;28;20041;-43
2022/05/04 12:58:52;;;;;;;6.50;1.85;;;15.40;55.00;;;;;;5022568;28;20087;-43
2022/05/04 13:01:23;;;;;;;4.30;1.42;;;15.30;55.00;;;;;;5022773;28;20048;-44
2022/05/04 13:03:50;;;;;;;10.32;1.48;;;15.30;54.80;;;;;;5019988;28;20400;-43
2022/05/04 13:06:20;;;;;;;6.90;1.55;;;15.30;55.00;;;;;;5021792;28;20045;-43
2022/05/04 13:08:48;;;;;;;5.47;1.27;;;15.50;55.10;;;;;;5021875;28;20428;-43
2022/05/04 13:11:14;;;;;;;6.75;1.45;;;15.70;56.30;;;;;;5020744;28;20042;-50
2022/05/04 13:13:40;;;;;;;8.52;1.33;;;16.00;56.30;;;;;;5022573;28;20041;-46
2022/05/04 13:16:06;;;;;;;6.53;1.92;;;16.10;56.30;;;;;;5020718;28;20038;-44
2022/05/04 13:18:31;;;;;;;5.72;1.80;;;16.20;55.00;;;;;;5020385;28;20049;-45
2022/05/04 13:20:57;;;;;;;10.50;1.77;;;16.10;54.10;;;;;;5022240;28;20052;-44
2022/05/04 13:23:23;;;;;;;6.13;1.73;;;16.00;53.20;;;;;;5022228;28;20496;-41
2022/05/04 13:25:49;;;;;;;7.78;1.77;;;16.00;53.20;;;;;;5022727;28;20069;-44